Flag for Spain

Past Weather in 36°43'09.9"N, 4°25'11.9"W, Spain — Yesterday and Last 2 Weeks

Currently: 52 °F. Passing clouds. (Weather station: Malaga / Aeropuerto, Spain). See more current weather

Past Weather in 36°43'09.9"N, 4°25'11.9"W — Graph

°F

36°43'09.9"N, 4°25'11.9"W Temperature Yesterday

Maximum temperature yesterday: 70 °F (at 4:00 pm)
Minimum temperature yesterday: 46 °F (at 5:30 am)
Average temperature yesterday: 59 °F

High & Low Weather Summary for the Past Weeks

 TemperatureHumidityPressure
High77 °F (Feb 22, 2:30 pm)100% (Feb 21, 7:54 am)30.57 "Hg (Feb 21, 7:54 am)
Low45 °F (Feb 19, 6:00 am)18% (Feb 22, 2:30 pm)29.80 "Hg (Feb 26, 7:30 am)
Average58 °F62%30.18 "Hg
* Reported Feb 15 8:00 am — Mar 1 8:30 am, 36°43'09.9"N, 4°25'11.9"W. Weather by CustomWeather, © 2024

Note: Actual official high and low records may vary slightly from our data, if they occured in-between our weather recording intervals... More about our weather records

36°43'09.9"N, 4°25'11.9"W Weather History for the Previous 24 Hours

Scroll right to see more
 ConditionsComfort  
Time TempWeatherWind HumidityBarometerVisibility
8:30 am
Fri, Mar 1
50 °FPassing clouds.26 mph50%30.12 "HgN/A
8:00 am50 °FSunny.23 mph54%30.12 "Hg10 mi
7:30 am50 °FPassing clouds.18 mph50%30.12 "HgN/A
7:00 am50 °FPassing clouds.17 mph54%30.12 "HgN/A
6:30 am50 °FClear.18 mph54%30.12 "Hg10 mi
6:00 am52 °FClear.20 mph50%30.12 "Hg10 mi
5:30 am52 °FClear.20 mph50%30.09 "Hg10 mi
5:00 am54 °FClear.18 mph47%30.09 "Hg10 mi
4:30 am54 °FPassing clouds.16 mph47%30.09 "HgN/A
4:00 am54 °FClear.17 mph51%30.09 "Hg10 mi
3:30 am54 °FClear.14 mph54%30.12 "Hg10 mi
2:30 am55 °FClear.16 mph51%30.09 "Hg10 mi
2:00 am57 °FClear.22 mph44%30.09 "Hg10 mi
1:30 am57 °FClear.18 mph48%30.09 "Hg10 mi
1:00 am57 °FPassing clouds.18 mph51%30.12 "HgN/A
12:30 am57 °FPassing clouds.16 mph55%30.09 "HgN/A
12:00 am59 °FPassing clouds.16 mph55%30.09 "HgN/A
11:30 pm
Thu, Feb 29
59 °FPassing clouds.17 mph59%30.09 "HgN/A
11:00 pm61 °FPassing clouds.20 mph55%30.09 "HgN/A
10:30 pm63 °FPassing clouds.17 mph52%30.09 "HgN/A
10:00 pm61 °FPassing clouds.14 mph55%30.07 "HgN/A
9:30 pm61 °FPassing clouds.15 mph55%30.07 "HgN/A
9:00 pm61 °FPassing clouds.13 mph55%30.07 "HgN/A
8:30 pm63 °FPassing clouds.17 mph52%30.07 "HgN/A
8:00 pm63 °FPassing clouds.16 mph49%30.07 "HgN/A
7:30 pm63 °FPassing clouds.21 mph52%30.04 "HgN/A
7:00 pm64 °FPassing clouds.18 mph46%30.04 "HgN/A
6:30 pm64 °FPassing clouds.16 mph43%30.04 "HgN/A
6:00 pm66 °FPassing clouds.17 mph40%30.04 "HgN/A
5:30 pm68 °FPassing clouds.16 mph35%30.04 "HgN/A
5:00 pm68 °FPassing clouds.16 mph35%30.04 "HgN/A
4:30 pm68 °FSunny.18 mph33%30.04 "Hg10 mi
4:00 pm70 °FSunny.17 mph31%30.04 "Hg10 mi
3:30 pm68 °FPassing clouds.14 mph30%30.04 "HgN/A
3:00 pm68 °FPassing clouds.15 mph38%30.07 "HgN/A
2:00 pm68 °FPassing clouds.15 mph35%30.07 "HgN/A
1:30 pm68 °FPassing clouds.15 mph33%30.09 "HgN/A
1:00 pm68 °FPassing clouds.17 mph35%30.09 "HgN/A
12:30 pm66 °FSunny.18 mph35%30.12 "Hg10 mi
12:00 pm64 °FSunny.15 mph40%30.12 "Hg10 mi
11:30 am63 °FSunny.15 mph42%30.12 "Hg10 mi
11:00 am61 °FPassing clouds.17 mph48%30.12 "HgN/A
10:30 am59 °FPassing clouds.14 mph48%30.12 "HgN/A
10:00 am57 °FPassing clouds.13 mph51%30.12 "HgN/A
9:00 am54 °FPassing clouds.10 mph54%30.12 "HgN/A
Weather by CustomWeather, © 2024

See weather overview